createdAt,value
2022-07-29T00:03:15.357Z,16.02
2022-07-29T00:12:52.382Z,15.9
2022-07-29T00:22:29.137Z,15.73
2022-07-29T00:32:06.139Z,15.78
2022-07-29T00:41:43.448Z,15.72
2022-07-29T00:51:20.391Z,15.47
2022-07-29T01:00:57.160Z,15.17
2022-07-29T01:10:34.517Z,15.11
2022-07-29T01:20:11.651Z,15.18
2022-07-29T01:29:48.857Z,15.06
2022-07-29T01:39:26.354Z,14.96
2022-07-29T01:49:03.714Z,15.09
2022-07-29T01:58:41.265Z,14.93
2022-07-29T02:08:18.243Z,14.68
2022-07-29T02:17:55.095Z,14.59
2022-07-29T02:27:32.052Z,14.39
2022-07-29T02:37:09.320Z,14.16
2022-07-29T02:46:46.208Z,14.01
2022-07-29T02:56:23.230Z,13.64
2022-07-29T03:05:59.764Z,13.38
2022-07-29T03:15:36.924Z,13.55
2022-07-29T03:25:14.208Z,13.5
2022-07-29T03:34:50.851Z,13.44
2022-07-29T03:44:27.822Z,13.46
2022-07-29T03:54:09.789Z,13.58
2022-07-29T04:03:42.463Z,13.76
2022-07-29T04:13:20.126Z,13.84
2022-07-29T04:22:57.444Z,13.9
2022-07-29T04:32:35.097Z,14.12
2022-07-29T04:42:13.287Z,14.47
2022-07-29T04:51:51.103Z,14.63
2022-07-29T05:01:28.824Z,14.84
2022-07-29T05:11:11.423Z,15.12
2022-07-29T05:20:44.694Z,15.26
2022-07-29T05:30:21.990Z,15.67
2022-07-29T05:39:59.290Z,15.57
2022-07-29T05:49:36.010Z,15.53
2022-07-29T05:59:17.917Z,15.75
2022-07-29T06:08:51.082Z,16.16
2022-07-29T06:18:28.790Z,16.59
2022-07-29T06:28:06.528Z,16.68
2022-07-29T06:37:44.201Z,17.03
2022-07-29T06:47:22.877Z,17.8
2022-07-29T06:57:00.873Z,18.21
2022-07-29T07:06:39.334Z,18.58
2022-07-29T07:16:17.943Z,19.46
2022-07-29T07:25:56.192Z,20.41
2022-07-29T07:35:35.862Z,20.87
2022-07-29T07:45:15.888Z,21.09
2022-07-29T07:54:52.694Z,21.45
2022-07-29T08:04:29.851Z,21.3
2022-07-29T08:14:07.498Z,21.55
2022-07-29T08:23:50.492Z,22.26
2022-07-29T08:33:26.090Z,23.08
2022-07-29T08:43:05.435Z,23.86
2022-07-29T08:52:45.154Z,24.39
2022-07-29T09:02:24.186Z,24.42
2022-07-29T09:12:00.975Z,24.39
2022-07-29T09:21:39.026Z,25.76
2022-07-29T09:31:18.304Z,26.22
2022-07-29T09:41:08.421Z,27.4
2022-07-29T09:50:52.840Z,28.16
2022-07-29T10:00:36.252Z,29.56
2022-07-29T10:10:19.717Z,29.49
2022-07-29T10:19:49.596Z,29.02
2022-07-29T10:29:27.185Z,28.83
2022-07-29T10:39:10.071Z,29.71
2022-07-29T10:48:45.929Z,27.64
2022-07-29T10:58:25.637Z,28.9
2022-07-29T11:08:14.890Z,31.14
2022-07-29T11:17:51.947Z,29.26
2022-07-29T11:27:19.798Z,29.26
2022-07-29T11:37:01.262Z,29.68
2022-07-29T11:46:34.574Z,29.34
2022-07-29T11:56:11.402Z,30.53
2022-07-29T12:05:48.028Z,30.05
2022-07-29T12:15:22.306Z,28.92
2022-07-29T12:25:02.315Z,28.66
2022-07-29T12:34:34.944Z,29.46
2022-07-29T12:44:12.911Z,27.93
2022-07-29T12:53:48.867Z,28.76
2022-07-29T13:03:25.548Z,27.95
2022-07-29T13:13:02.911Z,28.09
2022-07-29T13:22:40.494Z,27.97
2022-07-29T13:32:17.244Z,27.75
2022-07-29T13:41:55.607Z,28.21
2022-07-29T13:51:35.351Z,28.7
2022-07-29T14:01:14.473Z,28.22
2022-07-29T14:10:57.294Z,28.53
2022-07-29T14:20:42.338Z,29.09
2022-07-29T14:30:32.173Z,30.98
2022-07-29T14:40:21.977Z,32.23
2022-07-29T14:50:01.058Z,32.28
2022-07-29T14:59:36.843Z,30.78
2022-07-29T15:09:11.716Z,31.32
2022-07-29T15:18:47.008Z,32.76
2022-07-29T15:28:21.130Z,32.69
2022-07-29T15:37:57.881Z,32.35
2022-07-29T15:47:33.836Z,31.26
2022-07-29T15:57:07.509Z,29.86
2022-07-29T16:06:42.622Z,29.11
2022-07-29T16:16:19.437Z,29.95
2022-07-29T16:26:00.700Z,29.33
2022-07-29T16:35:39.374Z,28.99
2022-07-29T16:45:07.325Z,28.49
2022-07-29T16:54:43.417Z,27.93
2022-07-29T17:04:19.809Z,27.47
2022-07-29T17:13:55.898Z,27.22
2022-07-29T17:23:32.899Z,26.88
2022-07-29T17:33:09.737Z,26.37
2022-07-29T17:42:46.593Z,25.89
2022-07-29T17:52:23.151Z,25.5
2022-07-29T18:01:59.859Z,25.19
2022-07-29T18:11:36.593Z,25.04
2022-07-29T18:21:13.682Z,24.49
2022-07-29T18:30:50.302Z,24.16
2022-07-29T18:40:26.804Z,24.18
2022-07-29T18:50:03.911Z,24
2022-07-29T18:59:41.205Z,23.82
2022-07-29T19:09:18.381Z,23.67
2022-07-29T19:18:55.517Z,23.37
2022-07-29T19:28:32.313Z,23.2
2022-07-29T19:38:09.738Z,23.29
2022-07-29T19:47:46.731Z,22.73
2022-07-29T19:57:23.284Z,22.05
2022-07-29T20:07:00.138Z,21.57
2022-07-29T20:16:36.707Z,21.34
2022-07-29T20:27:17.565Z,21.1
2022-07-29T20:37:04.684Z,20.95
2022-07-29T20:46:42.212Z,20.88
2022-07-29T20:56:19.270Z,20.84
2022-07-29T21:05:56.161Z,20.58
2022-07-29T21:15:33.217Z,20
2022-07-29T21:25:09.672Z,19.38
2022-07-29T21:34:46.267Z,19.09
2022-07-29T21:44:23.247Z,18.93
2022-07-29T21:54:00.434Z,18.75
2022-07-29T22:03:37.811Z,18.7
2022-07-29T22:13:14.920Z,18.57
2022-07-29T22:22:52.176Z,18.45
2022-07-29T22:32:29.641Z,18.32
2022-07-29T22:42:07.032Z,18.32
2022-07-29T22:51:44.122Z,18.28
2022-07-29T23:01:36.086Z,18.08
2022-07-29T23:10:59.050Z,18.1
2022-07-29T23:20:35.991Z,17.99
2022-07-29T23:30:13.073Z,17.9
2022-07-29T23:39:50.291Z,17.69
2022-07-29T23:49:26.967Z,17.45
2022-07-29T23:59:05.697Z,17.33
